createdAt,value
2022-10-12T00:07:08.275Z,13.44
2022-10-12T00:12:01.539Z,13.49
2022-10-12T00:16:54.759Z,13.49
2022-10-12T00:21:47.949Z,13.53
2022-10-12T00:26:42.621Z,13.53
2022-10-12T00:31:35.900Z,13.49
2022-10-12T00:36:32.597Z,13.51
2022-10-12T00:57:01.400Z,13.66
2022-10-12T01:12:09.497Z,13.65
2022-10-12T01:32:50.435Z,13.42
2022-10-12T01:37:54.568Z,13.48
2022-10-12T01:42:50.012Z,13.49
2022-10-12T01:53:08.560Z,13.51
2022-10-12T02:41:43.747Z,13.35
2022-10-12T02:46:39.970Z,13.34
2022-10-12T02:51:35.631Z,13.39
2022-10-12T02:56:28.872Z,13.41
2022-10-12T03:06:34.082Z,13.49
2022-10-12T03:11:27.573Z,13.52
2022-10-12T03:21:31.244Z,13.42
2022-10-12T03:31:36.446Z,13.46
2022-10-12T03:41:40.101Z,13.51
2022-10-12T03:51:45.115Z,13.47
2022-10-12T04:01:38.892Z,13.34
2022-10-12T04:22:46.626Z,13.56
2022-10-12T04:53:33.475Z,13.58
2022-10-12T05:03:41.043Z,13.62
2022-10-12T05:08:36.699Z,13.58
2022-10-12T05:13:30.491Z,13.51
2022-10-12T05:18:25.966Z,13.36
2022-10-12T05:23:19.257Z,13.41
2022-10-12T05:28:13.954Z,13.36
2022-10-12T05:33:07.202Z,13.43
2022-10-12T05:38:00.450Z,13.48
2022-10-12T05:42:53.673Z,13.56
2022-10-12T05:47:48.295Z,13.56
2022-10-12T05:52:41.679Z,13.60
2022-10-12T05:57:35.220Z,13.44
2022-10-12T06:02:28.421Z,13.40
2022-10-12T06:07:23.038Z,13.37
2022-10-12T06:12:17.099Z,13.44
2022-10-12T06:17:10.717Z,13.51
2022-10-12T06:22:04.919Z,13.54
2022-10-12T06:26:59.670Z,13.57
2022-10-12T06:31:54.344Z,13.56
2022-10-12T06:36:47.895Z,13.58
2022-10-12T06:41:41.237Z,13.59
2022-10-12T06:46:35.973Z,13.62
2022-10-12T06:51:29.166Z,13.70
2022-10-12T06:56:23.458Z,13.70
2022-10-12T07:01:16.865Z,13.68
2022-10-12T07:06:14.805Z,13.61
2022-10-12T07:11:11.289Z,13.66
2022-10-12T07:16:05.415Z,13.69
2022-10-12T07:21:00.107Z,13.72
2022-10-12T07:25:55.673Z,13.73
2022-10-12T07:30:49.874Z,13.79
2022-10-12T07:36:03.195Z,13.83
2022-10-12T07:41:01.420Z,13.83
2022-10-12T07:45:55.069Z,13.85
2022-10-12T07:50:48.691Z,13.88
2022-10-12T07:55:41.953Z,13.86
2022-10-12T08:00:36.537Z,13.99
2022-10-12T08:05:29.885Z,13.87
2022-10-12T08:10:23.734Z,13.89
2022-10-12T08:15:17.339Z,13.97
2022-10-12T08:20:12.606Z,14.01
2022-10-12T08:25:07.032Z,14.04
2022-10-12T08:30:00.328Z,14.08
2022-10-12T08:34:53.604Z,14.09
2022-10-12T08:39:48.300Z,14.12
2022-10-12T08:45:10.775Z,14.16
2022-10-12T08:50:15.721Z,14.11
2022-10-12T08:55:30.203Z,14.10
2022-10-12T09:00:23.642Z,14.18
2022-10-12T09:06:07.043Z,14.30
2022-10-12T09:11:20.692Z,14.37
2022-10-12T09:16:23.745Z,14.46
2022-10-12T09:21:23.115Z,14.46
2022-10-12T09:26:21.986Z,14.41
2022-10-12T09:31:36.343Z,14.48
2022-10-12T09:36:35.445Z,14.46
2022-10-12T09:41:37.396Z,14.52
2022-10-12T09:46:41.143Z,14.51
2022-10-12T09:51:36.135Z,14.42
2022-10-12T09:56:39.872Z,14.51
2022-10-12T10:01:36.196Z,14.60
2022-10-12T10:06:29.514Z,14.62
2022-10-12T10:11:27.261Z,14.68
2022-10-12T10:16:25.977Z,14.71
2022-10-12T10:21:30.227Z,14.91
2022-10-12T10:26:26.536Z,14.90
2022-10-12T10:31:27.569Z,14.94
2022-10-12T10:36:24.664Z,14.98
2022-10-12T10:41:19.980Z,15.00
2022-10-12T10:46:15.532Z,14.97
2022-10-12T10:51:10.175Z,15.01
2022-10-12T10:56:09.981Z,15.08
2022-10-12T11:01:18.897Z,15.13
2022-10-12T11:06:26.991Z,15.20
2022-10-12T11:11:28.110Z,15.30
2022-10-12T11:16:31.871Z,15.31
2022-10-12T11:21:37.338Z,15.44
2022-10-12T11:26:38.236Z,15.30
2022-10-12T11:31:39.527Z,15.41
2022-10-12T11:36:47.358Z,15.35
2022-10-12T11:42:20.285Z,15.28
2022-10-12T11:47:18.571Z,15.32
2022-10-12T11:52:13.672Z,15.39
2022-10-12T11:57:15.106Z,15.39
2022-10-12T12:02:19.900Z,15.34
2022-10-12T12:07:48.408Z,15.25
2022-10-12T12:13:26.858Z,15.30
2022-10-12T12:18:22.944Z,15.38
2022-10-12T12:23:22.850Z,15.40
2022-10-12T12:28:25.455Z,15.37
2022-10-12T12:33:32.082Z,15.33
2022-10-12T12:38:30.192Z,15.42
2022-10-12T12:43:57.281Z,15.37
2022-10-12T12:49:25.813Z,15.38
2022-10-12T13:00:11.626Z,15.29
2022-10-12T13:20:41.107Z,15.46
2022-10-12T13:25:41.644Z,15.39
2022-10-12T13:30:44.539Z,15.44
2022-10-12T13:42:15.176Z,15.58
2022-10-12T14:07:56.036Z,15.66
2022-10-12T14:33:36.104Z,15.50
